Time;durP1;ratioP1;P1;durP2;ratioP2;P2;SDS_P1;SDS_P2;PMS_P1;PMS_P2;Temp;Humidity;BMP_temperature;BMP_pressure;BME280_temperature;BME280_humidity;BME280_pressure;Samples;Min_cycle;Max_cycle;Signal;HPM_P1;HPM_P2
2021/01/27 00:04:43;;;;;;;18.02;8.02;;;;;;;-0.26;92.15;100735.03;20912614;28;20070;-70
2021/01/27 00:14:43;;;;;;;12.20;6.05;;;;;;;-0.31;91.95;100729.03;20911723;28;20457;-71
2021/01/27 00:24:44;;;;;;;10.88;5.43;;;;;;;-0.37;92.25;100713.66;20912678;28;20048;-71
2021/01/27 00:34:45;;;;;;;9.52;5.20;;;;;;;-0.41;91.46;100688.81;20909590;28;20514;-72
2021/01/27 00:44:46;;;;;;;12.93;6.25;;;;;;;-0.53;92.79;100673.44;20910604;28;20530;-72
2021/01/27 00:55:01;;;;;;;11.53;5.87;;;;;;;-0.63;93.73;100661.50;20909145;28;20080;-71
2021/01/27 01:05:02;;;;;;;12.80;6.20;;;;;;;-0.77;94.08;100663.28;20909106;28;20462;-69
2021/01/27 01:15:04;;;;;;;11.65;5.90;;;;;;;-0.77;94.80;100663.28;20908892;28;20045;-71
2021/01/27 01:25:06;;;;;;;13.90;6.68;;;;;;;-0.91;96.58;100650.47;20926001;28;20098;-71
2021/01/27 01:35:07;;;;;;;12.20;6.93;;;;;;;-1.07;97.80;100649.69;20988770;28;20102;-71
2021/01/27 01:45:30;;;;;;;18.08;8.02;;;;;;;-0.95;98.73;100656.47;20988592;28;20090;-71
2021/01/27 01:55:32;;;;;;;15.30;7.80;;;;;;;-0.89;99.82;100631.63;20931586;28;20106;-69
2021/01/27 02:05:33;;;;;;;18.85;8.75;;;;;;;-0.82;100.00;100619.63;20903329;28;20045;-70
2021/01/27 02:15:55;;;;;;;17.48;8.35;;;;;;;-0.65;99.68;100617.78;20903569;28;20045;-69
2021/01/27 02:26:11;;;;;;;19.77;9.98;;;;;;;-0.50;99.38;100601.44;20903501;28;20103;-70
2021/01/27 02:36:29;;;;;;;16.63;8.27;;;;;;;-0.52;98.83;100588.59;20902240;28;20114;-70
2021/01/27 02:46:42;;;;;;;18.27;9.15;;;;;;;-0.43;98.87;100598.81;20903332;28;20045;-70
2021/01/27 02:56:58;;;;;;;18.23;9.18;;;;;;;-0.47;99.38;100592.00;20903460;28;20049;-69
2021/01/27 03:07:00;;;;;;;;;;;;;;;-0.29;99.80;100585.88;20901363;28;20056;-67
2021/01/27 03:17:07;;;;;;;20.77;8.60;;;;;;;-0.18;98.28;100568.63;20901548;28;19927;-69
2021/01/27 03:27:15;;;;;;;20.05;9.32;;;;;;;-0.14;98.11;100565.16;20901610;28;20069;-70
2021/01/27 03:37:28;;;;;;;17.00;9.20;;;;;;;-0.06;99.32;100549.69;20936703;28;20052;-71
2021/01/27 03:47:38;;;;;;;19.00;9.05;;;;;;;-0.02;99.52;100534.19;20968621;28;20045;-71
2021/01/27 03:57:45;;;;;;;17.52;9.20;;;;;;;0.01;97.95;100538.44;20923801;28;20493;-71
2021/01/27 04:07:45;;;;;;;15.48;8.48;;;;;;;0.08;97.46;100508.38;20913037;28;20049;-71
2021/01/27 04:17:46;;;;;;;13.93;7.75;;;;;;;0.10;97.57;100486.06;20912232;28;20136;-71
2021/01/27 04:27:48;;;;;;;15.13;7.88;;;;;;;0.20;97.11;100483.38;20912174;28;20649;-70
2021/01/27 04:37:49;;;;;;;16.35;7.90;;;;;;;0.23;95.94;100473.03;20910365;28;20110;-71
2021/01/27 04:48:06;;;;;;;13.93;7.22;;;;;;;0.33;94.93;100469.50;20910483;28;20490;-70
2021/01/27 04:58:20;;;;;;;18.00;7.85;;;;;;;0.41;92.36;100465.09;20908537;28;20049;-71
2021/01/27 05:08:27;;;;;;;15.00;7.72;;;;;;;0.44;92.69;100459.06;20939973;23;20078;-70
2021/01/27 05:18:28;;;;;;;16.88;7.40;;;;;;;0.42;93.47;100427.34;21069869;28;20258;-70
2021/01/27 05:28:34;;;;;;;18.38;8.27;;;;;;;0.49;92.79;100431.53;21061976;28;20044;-68
2021/01/27 05:38:35;;;;;;;17.33;8.63;;;;;;;0.47;92.95;100415.25;21045820;28;20102;-68
2021/01/27 05:48:50;;;;;;;16.88;7.90;;;;;;;0.49;93.20;100397.22;21071963;28;20048;-68
2021/01/27 05:58:53;;;;;;;18.83;8.63;;;;;;;0.63;92.88;100403.88;21063555;28;20639;-70
2021/01/27 06:08:57;;;;;;;19.60;10.33;;;;;;;0.52;91.85;100400.59;21069604;28;20044;-70
2021/01/27 06:19:17;;;;;;;19.00;8.27;;;;;;;0.62;90.04;100373.00;21073373;28;20152;-70
2021/01/27 06:29:26;;;;;;;15.88;7.50;;;;;;;0.61;90.45;100372.13;21085004;28;20048;-68
2021/01/27 06:39:49;;;;;;;12.30;6.72;;;;;;;0.64;91.33;100364.38;21004618;28;20044;-68
2021/01/27 06:50:16;;;;;;;13.88;5.75;;;;;;;0.71;90.89;100358.25;21041897;28;20117;-68
2021/01/27 07:00:23;;;;;;;14.70;6.85;;;;;;;0.75;90.55;100359.09;20949644;28;20048;-69
2021/01/27 07:10:31;;;;;;;13.50;7.28;;;;;;;0.81;90.40;100377.84;21038236;28;20491;-69
2021/01/27 07:20:36;;;;;;;15.50;6.78;;;;;;;0.71;90.00;100373.72;20998419;28;20040;-69
2021/01/27 07:30:46;;;;;;;17.05;8.45;;;;;;;0.75;89.74;100384.84;21041999;28;20052;-69
2021/01/27 07:41:00;;;;;;;17.05;7.82;;;;;;;0.71;91.14;100403.78;21019610;28;20052;-71
2021/01/27 07:51:11;;;;;;;14.33;7.53;;;;;;;0.66;93.44;100403.81;21004200;28;20483;-71
2021/01/27 08:01:24;;;;;;;14.48;7.65;;;;;;;0.62;95.97;100398.75;21000553;28;20045;-70
2021/01/27 08:11:35;;;;;;;16.00;7.28;;;;;;;0.62;98.33;100391.88;21054764;28;20048;-70
2021/01/27 08:21:45;;;;;;;13.13;7.38;;;;;;;0.45;100.00;100396.41;21081991;28;20048;-68
2021/01/27 08:32:20;;;;;;;16.05;7.60;;;;;;;0.35;100.00;100390.53;21078496;28;20048;-68
2021/01/27 08:42:33;;;;;;;14.50;7.60;;;;;;;0.40;100.00;100360.44;21070580;28;20478;-68
2021/01/27 08:52:37;;;;;;;16.48;7.20;;;;;;;0.38;100.00;100345.88;21061846;28;20437;-69
2021/01/27 09:02:43;;;;;;;17.53;7.37;;;;;;;0.34;100.00;100327.06;21076865;28;20116;-68
2021/01/27 09:12:46;;;;;;;15.20;8.07;;;;;;;0.48;100.00;100332.00;21076488;28;20055;-69
2021/01/27 09:22:47;;;;;;;11.30;6.35;;;;;;;0.52;100.00;100323.34;21068222;28;20044;-70
2021/01/27 09:32:48;;;;;;;13.07;5.63;;;;;;;0.46;100.00;100326.00;20994214;28;20537;-70
2021/01/27 09:42:55;;;;;;;12.27;6.50;;;;;;;0.46;100.00;100326.00;20990588;28;20515;-70
2021/01/27 09:52:59;;;;;;;9.35;5.65;;;;;;;0.73;100.00;100322.19;21017695;28;20043;-70
2021/01/27 10:03:26;;;;;;;8.23;4.97;;;;;;;0.75;100.00;100290.38;21072260;28;20106;-70
2021/01/27 10:13:31;;;;;;;8.32;4.78;;;;;;;0.79;100.00;100304.91;21048759;28;20541;-69
2021/01/27 10:23:34;;;;;;;8.00;5.00;;;;;;;0.94;100.00;100323.56;21021140;28;20052;-67
2021/01/27 10:33:41;;;;;;;6.07;3.75;;;;;;;0.94;100.00;100308.09;21070182;28;20044;-68
2021/01/27 10:43:42;;;;;;;5.50;3.25;;;;;;;1.04;100.00;100305.34;21062034;28;20040;-68
2021/01/27 10:53:44;;;;;;;9.77;3.88;;;;;;;1.07;100.00;100305.28;21061659;28;20483;-69
2021/01/27 11:03:45;;;;;;;8.90;4.28;;;;;;;0.99;100.00;100302.00;21075427;28;20122;-69
2021/01/27 11:13:47;;;;;;;6.18;2.90;;;;;;;1.22;100.00;100279.25;21058400;28;20083;-68
2021/01/27 11:23:48;;;;;;;5.45;2.70;;;;;;;1.29;100.00;100282.56;21086266;28;20415;-68
2021/01/27 11:33:49;;;;;;;5.88;3.30;;;;;;;1.36;100.00;100284.16;21085463;28;20516;-68
2021/01/27 11:43:50;;;;;;;5.95;3.05;;;;;;;1.38;100.00;100261.75;21076934;28;20039;-69
2021/01/27 11:53:51;;;;;;;7.82;3.95;;;;;;;1.44;100.00;100255.63;21084856;28;20509;-68
2021/01/27 12:03:52;;;;;;;8.93;3.42;;;;;;;1.22;100.00;100243.16;21074496;28;20086;-69
2021/01/27 12:13:54;;;;;;;6.63;3.03;;;;;;;1.57;100.00;100215.84;21081492;28;20075;-69
2021/01/27 12:23:55;;;;;;;6.47;3.40;;;;;;;1.64;100.00;100199.34;21049327;28;20045;-68
2021/01/27 12:33:55;;;;;;;4.80;2.60;;;;;;;1.59;100.00;100181.38;21009856;28;20062;-68
2021/01/27 12:43:57;;;;;;;8.15;4.15;;;;;;;1.57;100.00;100165.13;21070183;28;20052;-68
2021/01/27 12:53:58;;;;;;;7.63;3.97;;;;;;;1.56;100.00;100154.81;21069070;28;20182;-68
2021/01/27 13:03:59;;;;;;;9.48;3.72;;;;;;;1.49;100.00;100159.25;21059873;28;20048;-69
2021/01/27 13:14:00;;;;;;;7.35;3.97;;;;;;;1.49;100.00;100159.25;21048712;28;20044;-68
2021/01/27 13:24:01;;;;;;;7.60;3.70;;;;;;;1.55;100.00;100140.22;21038561;28;20507;-69
2021/01/27 13:34:02;;;;;;;6.05;2.75;;;;;;;1.60;100.00;100125.50;21075423;28;20048;-69
2021/01/27 13:44:04;;;;;;;4.65;2.40;;;;;;;1.51;100.00;100110.22;21057084;28;20048;-69
2021/01/27 13:54:05;;;;;;;7.20;3.10;;;;;;;1.42;100.00;100115.59;21065561;28;20052;-68
2021/01/27 14:04:06;;;;;;;6.82;3.10;;;;;;;1.47;100.00;100122.34;21072157;28;20068;-69
2021/01/27 14:14:07;;;;;;;6.45;3.67;;;;;;;1.40;100.00;100113.03;21034938;28;20045;-69
2021/01/27 14:24:08;;;;;;;8.95;4.25;;;;;;;1.36;100.00;100108.00;20988971;28;20041;-69
2021/01/27 14:34:09;;;;;;;8.13;4.18;;;;;;;1.28;100.00;100128.75;20989012;28;20060;-69
2021/01/27 14:44:10;;;;;;;11.45;6.43;;;;;;;1.25;100.00;100118.53;21053520;28;20094;-69
2021/01/27 14:54:15;;;;;;;7.78;4.57;;;;;;;1.20;100.00;100141.81;21062152;28;20094;-70
2021/01/27 15:04:16;;;;;;;11.90;5.03;;;;;;;1.25;100.00;100131.41;21069918;28;20055;-69
2021/01/27 15:14:17;;;;;;;9.13;5.32;;;;;;;1.27;100.00;100121.91;21044319;28;20044;-72
2021/01/27 15:24:18;;;;;;;11.40;6.30;;;;;;;1.33;100.00;100126.94;21055799;28;20052;-70
2021/01/27 15:34:19;;;;;;;12.65;5.75;;;;;;;1.24;100.00;100132.28;21023501;28;20072;-70
2021/01/27 15:44:21;;;;;;;10.30;5.82;;;;;;;1.34;100.00;100131.22;21029867;28;20056;-70
2021/01/27 15:54:22;;;;;;;10.63;6.80;;;;;;;1.27;100.00;100143.38;21040374;28;20052;-70
2021/01/27 16:04:23;;;;;;;10.80;7.40;;;;;;;1.19;100.00;100139.25;21078971;28;20044;-70
2021/01/27 16:14:26;;;;;;;14.48;7.70;;;;;;;1.27;100.00;100147.69;21044570;28;20150;-70
2021/01/27 16:24:27;;;;;;;13.40;8.38;;;;;;;1.15;100.00;100153.09;20998101;28;20111;-70
2021/01/27 16:34:28;;;;;;;13.40;8.50;;;;;;;1.18;100.00;100143.56;21005843;28;20048;-70
2021/01/27 16:44:28;;;;;;;13.20;8.75;;;;;;;1.25;100.00;100165.78;21070771;28;20079;-70
2021/01/27 16:54:29;;;;;;;14.65;9.55;;;;;;;1.30;100.00;100160.53;21061657;28;20052;-70
2021/01/27 17:04:31;;;;;;;18.40;10.18;;;;;;;1.17;100.00;100146.16;21078488;28;20044;-70
2021/01/27 17:14:32;;;;;;;16.85;9.48;;;;;;;1.35;100.00;100166.44;21017967;28;20047;-70
2021/01/27 17:24:33;;;;;;;17.20;10.52;;;;;;;1.27;100.00;100171.72;21054147;28;20049;-69
2021/01/27 17:34:34;;;;;;;20.77;13.32;;;;;;;1.36;100.00;100175.88;20998833;28;20056;-69
2021/01/27 17:44:36;;;;;;;20.00;12.20;;;;;;;1.40;100.00;100169.78;21020413;28;20110;-71
2021/01/27 17:54:37;;;;;;;23.40;14.50;;;;;;;1.40;100.00;100190.41;20987118;28;20095;-70
2021/01/27 18:04:38;;;;;;;18.63;12.70;;;;;;;1.43;100.00;100200.63;21067920;28;21645;-71
2021/01/27 18:14:39;;;;;;;20.48;12.93;;;;;;;1.57;100.00;100197.78;21034852;28;20052;-71
2021/01/27 18:24:40;;;;;;;22.85;13.05;;;;;;;1.54;100.00;100203.84;21009411;28;20044;-71
2021/01/27 18:34:41;;;;;;;22.17;13.48;;;;;;;1.61;100.00;100205.44;20987245;28;20048;-71
2021/01/27 18:44:42;;;;;;;22.02;14.73;;;;;;;1.64;100.00;100213.09;21038614;28;20047;-71
2021/01/27 18:54:43;;;;;;;30.55;17.75;;;;;;;1.58;100.00;100223.53;21026542;28;20047;-70
2021/01/27 19:04:44;;;;;;;26.38;17.30;;;;;;;1.63;100.00;100216.53;21047407;28;20082;-71
2021/01/27 19:14:46;;;;;;;27.23;16.48;;;;;;;1.63;100.00;100224.28;21031833;28;20468;-70
2021/01/27 19:24:47;;;;;;;27.65;15.68;;;;;;;1.63;100.00;100211.38;20996441;28;20051;-70
2021/01/27 19:34:49;;;;;;;26.23;16.55;;;;;;;1.65;100.00;100224.25;20999275;28;20036;-70
2021/01/27 19:44:50;;;;;;;25.52;16.60;;;;;;;1.73;100.00;100218.97;20996679;28;20045;-70
2021/01/27 19:54:51;;;;;;;30.85;18.80;;;;;;;1.63;100.00;100219.13;20999141;28;20057;-70
2021/01/27 20:04:52;;;;;;;29.98;19.05;;;;;;;1.66;100.00;100213.91;21021713;28;20048;-71
2021/01/27 20:14:53;;;;;;;29.33;17.45;;;;;;;1.66;100.00;100203.59;21000840;28;20049;-70
2021/01/27 20:24:54;;;;;;;32.80;20.40;;;;;;;1.64;100.00;100218.25;21057018;28;20044;-71
2021/01/27 20:34:55;;;;;;;29.58;18.45;;;;;;;1.58;100.00;100215.78;21014651;28;20048;-70
2021/01/27 20:44:56;;;;;;;31.75;18.55;;;;;;;1.49;100.00;100225.44;20995543;28;20044;-70
2021/01/27 20:54:56;;;;;;;33.17;20.30;;;;;;;1.62;100.00;100225.19;20985584;28;20041;-69
2021/01/27 21:04:57;;;;;;;35.30;21.98;;;;;;;1.63;100.00;100219.13;21042321;28;20050;-69
2021/01/27 21:14:58;;;;;;;37.13;22.27;;;;;;;1.70;100.00;100223.28;20990836;28;20127;-69
2021/01/27 21:25:00;;;;;;;38.85;20.88;;;;;;;1.60;100.00;100224.34;20989154;28;20131;-69
2021/01/27 21:35:03;;;;;;;37.35;21.60;;;;;;;1.68;100.00;100234.50;21020217;28;20131;-69
2021/01/27 21:45:07;;;;;;;39.22;20.83;;;;;;;1.62;100.00;100234.66;21066813;28;20039;-69
2021/01/27 21:55:10;;;;;;;37.13;20.23;;;;;;;1.68;100.00;100231.91;21042083;28;20794;-68
2021/01/27 22:05:12;;;;;;;40.58;22.42;;;;;;;1.75;100.00;100223.19;20986096;28;20040;-68
2021/01/27 22:15:14;;;;;;;42.22;22.00;;;;;;;1.73;100.00;100219.78;20985314;28;20102;-68
2021/01/27 22:25:19;;;;;;;44.70;22.80;;;;;;;1.74;100.00;100221.47;20987286;28;20098;-70
2021/01/27 22:35:25;;;;;;;;;;;;;;;1.85;100.00;100226.41;20983642;28;20437;-69
2021/01/27 22:45:26;;;;;;;38.53;20.00;;;;;;;1.82;100.00;100211.88;20983658;28;19952;-70
2021/01/27 22:55:47;;;;;;;42.60;20.92;;;;;;;1.91;100.00;100203.91;21043097;28;20051;-70
2021/01/27 23:05:49;;;;;;;46.42;22.83;;;;;;;1.94;100.00;100196.09;21014176;28;20054;-69
2021/01/27 23:15:52;;;;;;;45.22;22.55;;;;;;;2.06;100.00;100192.41;20988513;28;20068;-70
2021/01/27 23:25:54;;;;;;;40.80;20.80;;;;;;;2.05;100.00;100168.31;21037452;28;20472;-71
2021/01/27 23:35:55;;;;;;;46.65;21.65;;;;;;;2.25;100.00;100162.66;21039664;28;20132;-70
2021/01/27 23:45:56;;;;;;;42.30;21.38;;;;;;;2.12;100.00;100156.97;21022592;28;20048;-70
2021/01/27 23:55:57;;;;;;;45.55;22.55;;;;;;;2.17;100.00;100154.28;20988116;28;20071;-69
